sensor_id;sensor_type;location;lat;lon;timestamp;temperature;humidity
12477;DHT22;6303;51.504;6.300;2023-09-18T00:02:25;29.40;69.30
12477;DHT22;6303;51.504;6.300;2023-09-18T00:04:53;29.40;69.20
12477;DHT22;6303;51.504;6.300;2023-09-18T00:07:20;29.40;69.30
12477;DHT22;6303;51.504;6.300;2023-09-18T00:09:47;29.40;69.30
12477;DHT22;6303;51.504;6.300;2023-09-18T00:12:17;29.40;69.30
12477;DHT22;6303;51.504;6.300;2023-09-18T00:14:46;29.40;69.30
12477;DHT22;6303;51.504;6.300;2023-09-18T00:17:15;29.40;69.40
12477;DHT22;6303;51.504;6.300;2023-09-18T00:19:44;29.40;69.40
12477;DHT22;6303;51.504;6.300;2023-09-18T00:22:12;29.40;69.50
12477;DHT22;6303;51.504;6.300;2023-09-18T00:24:39;29.40;69.50
12477;DHT22;6303;51.504;6.300;2023-09-18T00:27:06;29.40;69.50
12477;DHT22;6303;51.504;6.300;2023-09-18T00:29:33;29.40;69.50
12477;DHT22;6303;51.504;6.300;2023-09-18T00:32:00;29.40;69.60
12477;DHT22;6303;51.504;6.300;2023-09-18T00:34:29;29.40;69.60
12477;DHT22;6303;51.504;6.300;2023-09-18T00:36:57;29.40;69.60
12477;DHT22;6303;51.504;6.300;2023-09-18T00:39:25;29.30;69.60
12477;DHT22;6303;51.504;6.300;2023-09-18T00:41:52;29.30;69.60
12477;DHT22;6303;51.504;6.300;2023-09-18T00:44:20;29.30;69.50
12477;DHT22;6303;51.504;6.300;2023-09-18T00:46:48;29.30;69.50
12477;DHT22;6303;51.504;6.300;2023-09-18T00:49:16;29.30;69.60
12477;DHT22;6303;51.504;6.300;2023-09-18T00:51:45;29.30;69.60
12477;DHT22;6303;51.504;6.300;2023-09-18T00:54:15;30.20;70.20
12477;DHT22;6303;51.504;6.300;2023-09-18T00:56:44;29.30;69.50
12477;DHT22;6303;51.504;6.300;2023-09-18T00:59:12;29.30;69.60
12477;DHT22;6303;51.504;6.300;2023-09-18T01:01:40;29.30;69.50
12477;DHT22;6303;51.504;6.300;2023-09-18T01:04:09;29.30;69.60
12477;DHT22;6303;51.504;6.300;2023-09-18T01:06:36;29.30;69.60
12477;DHT22;6303;51.504;6.300;2023-09-18T01:09:05;29.30;69.60
12477;DHT22;6303;51.504;6.300;2023-09-18T01:11:45;29.30;69.60
12477;DHT22;6303;51.504;6.300;2023-09-18T01:14:19;29.30;69.60
12477;DHT22;6303;51.504;6.300;2023-09-18T01:16:51;29.30;69.60
12477;DHT22;6303;51.504;6.300;2023-09-18T01:19:35;29.20;69.50
12477;DHT22;6303;51.504;6.300;2023-09-18T01:22:03;29.30;69.60
12477;DHT22;6303;51.504;6.300;2023-09-18T01:24:32;29.20;69.50
12477;DHT22;6303;51.504;6.300;2023-09-18T01:26:59;29.30;69.60
12477;DHT22;6303;51.504;6.300;2023-09-18T01:29:27;29.30;69.60
12477;DHT22;6303;51.504;6.300;2023-09-18T01:31:54;29.30;69.70
12477;DHT22;6303;51.504;6.300;2023-09-18T01:34:23;29.30;69.70
12477;DHT22;6303;51.504;6.300;2023-09-18T01:36:53;29.20;69.70
12477;DHT22;6303;51.504;6.300;2023-09-18T01:39:21;29.20;69.30
12477;DHT22;6303;51.504;6.300;2023-09-18T01:41:50;29.20;69.40
12477;DHT22;6303;51.504;6.300;2023-09-18T01:44:17;29.20;69.60
12477;DHT22;6303;51.504;6.300;2023-09-18T01:46:44;29.20;69.70
12477;DHT22;6303;51.504;6.300;2023-09-18T01:49:12;29.20;69.70
12477;DHT22;6303;51.504;6.300;2023-09-18T01:51:39;29.20;69.70
12477;DHT22;6303;51.504;6.300;2023-09-18T01:54:06;29.20;69.70
12477;DHT22;6303;51.504;6.300;2023-09-18T01:56:33;29.20;69.60
12477;DHT22;6303;51.504;6.300;2023-09-18T01:59:01;29.20;70.70
12477;DHT22;6303;51.504;6.300;2023-09-18T02:01:29;29.20;69.80
12477;DHT22;6303;51.504;6.300;2023-09-18T02:03:56;29.20;69.30
12477;DHT22;6303;51.504;6.300;2023-09-18T02:06:23;29.30;69.30
12477;DHT22;6303;51.504;6.300;2023-09-18T02:08:50;29.20;69.20
12477;DHT22;6303;51.504;6.300;2023-09-18T02:11:19;29.30;69.10
12477;DHT22;6303;51.504;6.300;2023-09-18T02:13:46;29.30;69.10
12477;DHT22;6303;51.504;6.300;2023-09-18T02:16:14;29.30;69.00
12477;DHT22;6303;51.504;6.300;2023-09-18T02:18:41;29.30;69.00
12477;DHT22;6303;51.504;6.300;2023-09-18T02:21:09;29.30;69.00
12477;DHT22;6303;51.504;6.300;2023-09-18T02:23:36;29.30;69.00
12477;DHT22;6303;51.504;6.300;2023-09-18T02:26:03;29.30;68.90
12477;DHT22;6303;51.504;6.300;2023-09-18T02:28:31;29.30;68.90
12477;DHT22;6303;51.504;6.300;2023-09-18T02:30:58;29.30;68.90
12477;DHT22;6303;51.504;6.300;2023-09-18T02:33:26;29.30;68.90
12477;DHT22;6303;51.504;6.300;2023-09-18T02:35:53;29.30;68.80
12477;DHT22;6303;51.504;6.300;2023-09-18T02:38:20;29.30;68.80
12477;DHT22;6303;51.504;6.300;2023-09-18T02:40:47;29.30;68.80
12477;DHT22;6303;51.504;6.300;2023-09-18T02:43:15;29.30;68.80
12477;DHT22;6303;51.504;6.300;2023-09-18T02:45:42;29.30;68.80
12477;DHT22;6303;51.504;6.300;2023-09-18T02:48:09;29.30;68.80
12477;DHT22;6303;51.504;6.300;2023-09-18T02:50:37;29.30;68.80
12477;DHT22;6303;51.504;6.300;2023-09-18T02:53:06;29.30;68.90
12477;DHT22;6303;51.504;6.300;2023-09-18T02:55:34;29.30;68.90
12477;DHT22;6303;51.504;6.300;2023-09-18T02:58:01;28.80;68.40
12477;DHT22;6303;51.504;6.300;2023-09-18T03:00:29;29.30;68.80
12477;DHT22;6303;51.504;6.300;2023-09-18T03:02:56;29.30;68.80
12477;DHT22;6303;51.504;6.300;2023-09-18T03:05:23;29.30;68.90
12477;DHT22;6303;51.504;6.300;2023-09-18T03:07:51;29.30;68.80
12477;DHT22;6303;51.504;6.300;2023-09-18T03:10:18;29.30;68.70
12477;DHT22;6303;51.504;6.300;2023-09-18T03:12:47;29.30;68.80
12477;DHT22;6303;51.504;6.300;2023-09-18T03:15:15;29.30;68.80
12477;DHT22;6303;51.504;6.300;2023-09-18T03:17:42;29.30;68.80
12477;DHT22;6303;51.504;6.300;2023-09-18T03:20:10;29.30;68.80
12477;DHT22;6303;51.504;6.300;2023-09-18T03:22:38;29.30;68.70
12477;DHT22;6303;51.504;6.300;2023-09-18T03:25:07;29.30;68.60
12477;DHT22;6303;51.504;6.300;2023-09-18T03:27:34;29.30;68.60
12477;DHT22;6303;51.504;6.300;2023-09-18T03:30:01;29.30;68.60
12477;DHT22;6303;51.504;6.300;2023-09-18T03:32:28;29.30;68.60
12477;DHT22;6303;51.504;6.300;2023-09-18T03:34:56;29.30;68.60
12477;DHT22;6303;51.504;6.300;2023-09-18T03:37:23;29.30;68.70
12477;DHT22;6303;51.504;6.300;2023-09-18T03:39:50;29.30;68.70
12477;DHT22;6303;51.504;6.300;2023-09-18T03:42:19;29.20;68.50
12477;DHT22;6303;51.504;6.300;2023-09-18T03:44:47;29.30;68.70
12477;DHT22;6303;51.504;6.300;2023-09-18T03:47:14;29.30;68.70
12477;DHT22;6303;51.504;6.300;2023-09-18T03:49:41;29.30;68.70
12477;DHT22;6303;51.504;6.300;2023-09-18T03:52:08;29.30;68.70
12477;DHT22;6303;51.504;6.300;2023-09-18T03:54:35;29.30;68.80
12477;DHT22;6303;51.504;6.300;2023-09-18T03:57:02;29.30;68.70
12477;DHT22;6303;51.504;6.300;2023-09-18T03:59:31;29.30;68.70
12477;DHT22;6303;51.504;6.300;2023-09-18T04:01:58;28.90;68.40
12477;DHT22;6303;51.504;6.300;2023-09-18T04:04:25;29.30;68.80
12477;DHT22;6303;51.504;6.300;2023-09-18T04:06:54;29.30;68.80
12477;DHT22;6303;51.504;6.300;2023-09-18T04:09:21;29.20;68.70
12477;DHT22;6303;51.504;6.300;2023-09-18T04:11:48;29.30;69.10
12477;DHT22;6303;51.504;6.300;2023-09-18T04:14:15;29.30;68.90
12477;DHT22;6303;51.504;6.300;2023-09-18T04:16:44;29.30;68.80
12477;DHT22;6303;51.504;6.300;2023-09-18T04:19:11;29.00;68.50
12477;DHT22;6303;51.504;6.300;2023-09-18T04:21:38;29.30;68.90
12477;DHT22;6303;51.504;6.300;2023-09-18T04:24:05;29.30;68.90
12477;DHT22;6303;51.504;6.300;2023-09-18T04:26:32;29.30;69.20
12477;DHT22;6303;51.504;6.300;2023-09-18T04:29:00;29.30;70.30
12477;DHT22;6303;51.504;6.300;2023-09-18T04:31:28;29.30;69.40
12477;DHT22;6303;51.504;6.300;2023-09-18T04:33:57;29.30;69.20
12477;DHT22;6303;51.504;6.300;2023-09-18T04:36:24;29.20;69.00
12477;DHT22;6303;51.504;6.300;2023-09-18T04:38:52;29.20;68.90
12477;DHT22;6303;51.504;6.300;2023-09-18T04:41:19;29.30;69.00
12477;DHT22;6303;51.504;6.300;2023-09-18T04:43:47;29.20;69.40
12477;DHT22;6303;51.504;6.300;2023-09-18T04:46:15;29.20;69.20
12477;DHT22;6303;51.504;6.300;2023-09-18T04:48:43;29.20;68.90
12477;DHT22;6303;51.504;6.300;2023-09-18T04:51:11;29.20;69.00
12477;DHT22;6303;51.504;6.300;2023-09-18T04:53:39;29.20;69.40
12477;DHT22;6303;51.504;6.300;2023-09-18T04:56:06;29.30;69.30
12477;DHT22;6303;51.504;6.300;2023-09-18T04:58:34;29.30;70.40
12477;DHT22;6303;51.504;6.300;2023-09-18T05:01:03;29.30;70.80
12477;DHT22;6303;51.504;6.300;2023-09-18T05:03:33;29.30;71.10
12477;DHT22;6303;51.504;6.300;2023-09-18T05:06:00;29.30;70.80
12477;DHT22;6303;51.504;6.300;2023-09-18T05:08:30;29.30;70.70
12477;DHT22;6303;51.504;6.300;2023-09-18T05:10:57;29.30;70.70
12477;DHT22;6303;51.504;6.300;2023-09-18T05:13:24;29.30;70.40
12477;DHT22;6303;51.504;6.300;2023-09-18T05:15:51;29.30;69.80
12477;DHT22;6303;51.504;6.300;2023-09-18T05:18:18;29.30;69.30
12477;DHT22;6303;51.504;6.300;2023-09-18T05:20:45;29.30;69.30
12477;DHT22;6303;51.504;6.300;2023-09-18T05:23:12;29.30;70.40
12477;DHT22;6303;51.504;6.300;2023-09-18T05:25:42;29.30;70.40
12477;DHT22;6303;51.504;6.300;2023-09-18T05:28:10;29.30;69.80
12477;DHT22;6303;51.504;6.300;2023-09-18T05:30:37;29.30;69.50
12477;DHT22;6303;51.504;6.300;2023-09-18T05:33:05;29.30;69.70
12477;DHT22;6303;51.504;6.300;2023-09-18T05:35:34;29.30;70.10
12477;DHT22;6303;51.504;6.300;2023-09-18T05:38:02;29.20;70.00
12477;DHT22;6303;51.504;6.300;2023-09-18T05:40:31;29.20;71.90
12477;DHT22;6303;51.504;6.300;2023-09-18T05:42:59;29.10;71.00
12477;DHT22;6303;51.504;6.300;2023-09-18T05:45:27;29.10;70.60
12477;DHT22;6303;51.504;6.300;2023-09-18T05:47:54;29.10;70.20
12477;DHT22;6303;51.504;6.300;2023-09-18T05:50:27;29.10;70.10
12477;DHT22;6303;51.504;6.300;2023-09-18T05:52:55;29.10;69.90
12477;DHT22;6303;51.504;6.300;2023-09-18T05:55:25;29.10;70.50
12477;DHT22;6303;51.504;6.300;2023-09-18T05:57:52;29.40;70.00
12477;DHT22;6303;51.504;6.300;2023-09-18T06:00:21;29.10;69.60
12477;DHT22;6303;51.504;6.300;2023-09-18T06:02:48;29.10;69.70
12477;DHT22;6303;51.504;6.300;2023-09-18T06:05:17;28.70;69.30
12477;DHT22;6303;51.504;6.300;2023-09-18T06:07:47;29.10;69.50
12477;DHT22;6303;51.504;6.300;2023-09-18T06:10:15;29.10;69.60
12477;DHT22;6303;51.504;6.300;2023-09-18T06:12:43;29.10;69.50
12477;DHT22;6303;51.504;6.300;2023-09-18T06:15:11;29.10;69.80
12477;DHT22;6303;51.504;6.300;2023-09-18T06:17:41;29.10;69.80
12477;DHT22;6303;51.504;6.300;2023-09-18T06:20:10;29.10;69.50
12477;DHT22;6303;51.504;6.300;2023-09-18T06:22:39;29.10;69.40
12477;DHT22;6303;51.504;6.300;2023-09-18T06:25:07;29.10;69.30
12477;DHT22;6303;51.504;6.300;2023-09-18T06:27:36;29.00;69.20
12477;DHT22;6303;51.504;6.300;2023-09-18T06:30:04;29.10;69.40
12477;DHT22;6303;51.504;6.300;2023-09-18T06:32:31;29.10;69.60
12477;DHT22;6303;51.504;6.300;2023-09-18T06:35:00;29.10;69.90
12477;DHT22;6303;51.504;6.300;2023-09-18T06:37:27;29.10;71.80
12477;DHT22;6303;51.504;6.300;2023-09-18T06:39:55;29.00;71.50
12477;DHT22;6303;51.504;6.300;2023-09-18T06:42:22;29.10;71.00
12477;DHT22;6303;51.504;6.300;2023-09-18T06:44:56;29.00;70.70
12477;DHT22;6303;51.504;6.300;2023-09-18T06:47:23;29.00;70.40
12477;DHT22;6303;51.504;6.300;2023-09-18T06:49:50;29.00;70.30
12477;DHT22;6303;51.504;6.300;2023-09-18T06:52:20;29.00;70.10
12477;DHT22;6303;51.504;6.300;2023-09-18T06:54:47;29.00;70.00
12477;DHT22;6303;51.504;6.300;2023-09-18T06:57:14;29.00;70.00
12477;DHT22;6303;51.504;6.300;2023-09-18T06:59:41;29.00;69.90
12477;DHT22;6303;51.504;6.300;2023-09-18T07:02:08;29.00;69.60
12477;DHT22;6303;51.504;6.300;2023-09-18T07:04:35;29.00;69.60
12477;DHT22;6303;51.504;6.300;2023-09-18T07:07:03;29.00;69.20
12477;DHT22;6303;51.504;6.300;2023-09-18T07:09:31;29.00;69.00
12477;DHT22;6303;51.504;6.300;2023-09-18T07:11:59;29.00;69.00
12477;DHT22;6303;51.504;6.300;2023-09-18T07:14:26;29.00;68.80
12477;DHT22;6303;51.504;6.300;2023-09-18T07:16:53;29.00;68.60
12477;DHT22;6303;51.504;6.300;2023-09-18T07:19:20;29.00;68.50
12477;DHT22;6303;51.504;6.300;2023-09-18T07:21:48;28.90;68.40
12477;DHT22;6303;51.504;6.300;2023-09-18T07:24:15;28.90;68.30
12477;DHT22;6303;51.504;6.300;2023-09-18T07:26:45;28.90;68.40
12477;DHT22;6303;51.504;6.300;2023-09-18T07:29:13;28.90;68.00
12477;DHT22;6303;51.504;6.300;2023-09-18T07:31:41;28.90;67.60
12477;DHT22;6303;51.504;6.300;2023-09-18T07:34:08;28.90;67.10
12477;DHT22;6303;51.504;6.300;2023-09-18T07:36:35;28.80;67.10
12477;DHT22;6303;51.504;6.300;2023-09-18T07:39:03;28.80;67.10
12477;DHT22;6303;51.504;6.300;2023-09-18T07:41:30;28.80;67.00
12477;DHT22;6303;51.504;6.300;2023-09-18T07:43:59;28.80;66.80
12477;DHT22;6303;51.504;6.300;2023-09-18T07:46:26;28.80;66.70
12477;DHT22;6303;51.504;6.300;2023-09-18T07:48:53;28.80;66.80
12477;DHT22;6303;51.504;6.300;2023-09-18T07:51:20;28.70;66.70
12477;DHT22;6303;51.504;6.300;2023-09-18T07:53:47;28.70;66.60
12477;DHT22;6303;51.504;6.300;2023-09-18T07:56:14;28.70;66.50
12477;DHT22;6303;51.504;6.300;2023-09-18T07:58:42;28.70;66.50
12477;DHT22;6303;51.504;6.300;2023-09-18T08:01:10;28.70;66.60
12477;DHT22;6303;51.504;6.300;2023-09-18T08:03:37;28.60;66.40
12477;DHT22;6303;51.504;6.300;2023-09-18T08:06:05;28.60;66.40
12477;DHT22;6303;51.504;6.300;2023-09-18T08:08:32;28.60;66.40
12477;DHT22;6303;51.504;6.300;2023-09-18T08:11:06;28.60;66.40
12477;DHT22;6303;51.504;6.300;2023-09-18T08:13:34;28.60;66.60
12477;DHT22;6303;51.504;6.300;2023-09-18T08:16:02;28.60;66.50
12477;DHT22;6303;51.504;6.300;2023-09-18T08:18:31;28.60;66.40
12477;DHT22;6303;51.504;6.300;2023-09-18T08:20:58;28.60;66.30
12477;DHT22;6303;51.504;6.300;2023-09-18T08:23:26;28.60;66.40
12477;DHT22;6303;51.504;6.300;2023-09-18T08:25:53;28.60;66.30
12477;DHT22;6303;51.504;6.300;2023-09-18T08:28:22;28.60;66.20
12477;DHT22;6303;51.504;6.300;2023-09-18T08:30:49;28.60;66.00
12477;DHT22;6303;51.504;6.300;2023-09-18T08:33:16;28.60;65.90
12477;DHT22;6303;51.504;6.300;2023-09-18T08:35:45;28.60;66.00
12477;DHT22;6303;51.504;6.300;2023-09-18T08:38:13;28.60;66.00
12477;DHT22;6303;51.504;6.300;2023-09-18T08:40:41;28.60;65.80
12477;DHT22;6303;51.504;6.300;2023-09-18T08:43:11;28.60;65.80
12477;DHT22;6303;51.504;6.300;2023-09-18T08:45:43;28.60;66.00
12477;DHT22;6303;51.504;6.300;2023-09-18T08:48:11;28.60;66.90
12477;DHT22;6303;51.504;6.300;2023-09-18T08:50:39;28.60;65.90
12477;DHT22;6303;51.504;6.300;2023-09-18T08:53:08;28.60;65.70
12477;DHT22;6303;51.504;6.300;2023-09-18T08:55:41;28.60;65.40
12477;DHT22;6303;51.504;6.300;2023-09-18T08:58:08;28.60;65.20
12477;DHT22;6303;51.504;6.300;2023-09-18T09:00:37;28.80;65.40
12477;DHT22;6303;51.504;6.300;2023-09-18T09:03:04;28.60;65.40
12477;DHT22;6303;51.504;6.300;2023-09-18T09:05:31;28.60;65.30
12477;DHT22;6303;51.504;6.300;2023-09-18T09:07:59;28.60;65.10
12477;DHT22;6303;51.504;6.300;2023-09-18T09:10:28;28.60;65.00
12477;DHT22;6303;51.504;6.300;2023-09-18T09:12:57;28.70;64.90
12477;DHT22;6303;51.504;6.300;2023-09-18T09:15:27;28.70;64.80
12477;DHT22;6303;51.504;6.300;2023-09-18T09:18:03;28.70;64.90
12477;DHT22;6303;51.504;6.300;2023-09-18T09:20:31;28.70;65.00
12477;DHT22;6303;51.504;6.300;2023-09-18T09:23:03;28.70;65.10
12477;DHT22;6303;51.504;6.300;2023-09-18T09:25:32;28.70;64.90
12477;DHT22;6303;51.504;6.300;2023-09-18T09:28:01;28.70;65.00
12477;DHT22;6303;51.504;6.300;2023-09-18T09:30:29;28.70;65.00
12477;DHT22;6303;51.504;6.300;2023-09-18T09:32:58;28.70;64.90
12477;DHT22;6303;51.504;6.300;2023-09-18T09:35:27;28.70;64.80
12477;DHT22;6303;51.504;6.300;2023-09-18T09:37:56;28.80;65.00
12477;DHT22;6303;51.504;6.300;2023-09-18T09:40:25;28.80;64.80
12477;DHT22;6303;51.504;6.300;2023-09-18T09:42:54;28.80;64.60
12477;DHT22;6303;51.504;6.300;2023-09-18T09:45:27;28.80;64.60
12477;DHT22;6303;51.504;6.300;2023-09-18T09:47:56;28.80;64.50
12477;DHT22;6303;51.504;6.300;2023-09-18T09:50:24;28.90;64.60
12477;DHT22;6303;51.504;6.300;2023-09-18T09:52:53;28.90;64.60
12477;DHT22;6303;51.504;6.300;2023-09-18T09:55:25;28.90;64.50
12477;DHT22;6303;51.504;6.300;2023-09-18T09:57:57;29.00;64.50
12477;DHT22;6303;51.504;6.300;2023-09-18T10:00:28;29.10;64.30
12477;DHT22;6303;51.504;6.300;2023-09-18T10:03:04;29.10;64.10
12477;DHT22;6303;51.504;6.300;2023-09-18T10:05:34;29.30;63.90
12477;DHT22;6303;51.504;6.300;2023-09-18T10:08:04;29.30;63.70
12477;DHT22;6303;51.504;6.300;2023-09-18T10:10:34;29.40;63.60
12477;DHT22;6303;51.504;6.300;2023-09-18T10:13:08;29.50;63.50
12477;DHT22;6303;51.504;6.300;2023-09-18T10:15:38;29.60;63.40
12477;DHT22;6303;51.504;6.300;2023-09-18T10:18:17;29.70;63.10
12477;DHT22;6303;51.504;6.300;2023-09-18T10:20:47;29.80;63.10
12477;DHT22;6303;51.504;6.300;2023-09-18T10:23:24;29.80;63.00
12477;DHT22;6303;51.504;6.300;2023-09-18T10:25:55;29.90;62.70
12477;DHT22;6303;51.504;6.300;2023-09-18T10:28:24;29.90;62.50
12477;DHT22;6303;51.504;6.300;2023-09-18T10:30:56;30.60;62.70
12477;DHT22;6303;51.504;6.300;2023-09-18T10:33:23;30.10;62.10
12477;DHT22;6303;51.504;6.300;2023-09-18T10:35:53;30.10;61.90
12477;DHT22;6303;51.504;6.300;2023-09-18T10:38:21;30.10;61.50
12477;DHT22;6303;51.504;6.300;2023-09-18T10:40:48;30.20;61.40
12477;DHT22;6303;51.504;6.300;2023-09-18T10:43:16;30.20;61.20
12477;DHT22;6303;51.504;6.300;2023-09-18T10:45:46;30.20;61.20
12477;DHT22;6303;51.504;6.300;2023-09-18T10:48:14;30.30;61.10
12477;DHT22;6303;51.504;6.300;2023-09-18T10:50:42;31.10;61.40
12477;DHT22;6303;51.504;6.300;2023-09-18T10:53:12;30.30;60.50
12477;DHT22;6303;51.504;6.300;2023-09-18T10:55:40;30.30;60.60
12477;DHT22;6303;51.504;6.300;2023-09-18T10:58:09;30.40;60.40
12477;DHT22;6303;51.504;6.300;2023-09-18T11:00:36;30.40;60.10
12477;DHT22;6303;51.504;6.300;2023-09-18T11:03:13;30.30;60.10
12477;DHT22;6303;51.504;6.300;2023-09-18T11:05:40;30.30;60.10
12477;DHT22;6303;51.504;6.300;2023-09-18T11:08:28;30.20;61.10
12477;DHT22;6303;51.504;6.300;2023-09-18T11:10:57;30.10;60.40
12477;DHT22;6303;51.504;6.300;2023-09-18T11:13:30;30.20;60.20
12477;DHT22;6303;51.504;6.300;2023-09-18T11:16:15;30.20;60.30
12477;DHT22;6303;51.504;6.300;2023-09-18T11:18:47;30.20;60.40
12477;DHT22;6303;51.504;6.300;2023-09-18T11:21:15;30.20;60.00
12477;DHT22;6303;51.504;6.300;2023-09-18T11:23:43;30.10;59.90
12477;DHT22;6303;51.504;6.300;2023-09-18T11:26:11;30.10;60.00
12477;DHT22;6303;51.504;6.300;2023-09-18T11:28:38;30.00;60.00
12477;DHT22;6303;51.504;6.300;2023-09-18T11:31:06;30.00;60.20
12477;DHT22;6303;51.504;6.300;2023-09-18T11:33:35;29.80;60.00
12477;DHT22;6303;51.504;6.300;2023-09-18T11:36:08;29.80;59.90
12477;DHT22;6303;51.504;6.300;2023-09-18T11:38:53;29.80;59.90
12477;DHT22;6303;51.504;6.300;2023-09-18T11:41:23;29.90;60.00
12477;DHT22;6303;51.504;6.300;2023-09-18T11:43:52;30.00;60.20
12477;DHT22;6303;51.504;6.300;2023-09-18T11:46:20;30.00;60.50
12477;DHT22;6303;51.504;6.300;2023-09-18T11:48:48;29.90;60.60
12477;DHT22;6303;51.504;6.300;2023-09-18T11:51:24;29.90;60.30
12477;DHT22;6303;51.504;6.300;2023-09-18T11:53:54;29.90;60.00
12477;DHT22;6303;51.504;6.300;2023-09-18T11:56:21;30.00;60.00
12477;DHT22;6303;51.504;6.300;2023-09-18T11:58:49;30.10;59.70
12477;DHT22;6303;51.504;6.300;2023-09-18T12:01:18;30.10;59.80
12477;DHT22;6303;51.504;6.300;2023-09-18T12:03:45;30.10;59.50
12477;DHT22;6303;51.504;6.300;2023-09-18T12:06:14;30.10;59.10
12477;DHT22;6303;51.504;6.300;2023-09-18T12:08:45;30.20;59.20
12477;DHT22;6303;51.504;6.300;2023-09-18T12:11:13;30.20;59.30
12477;DHT22;6303;51.504;6.300;2023-09-18T12:13:42;30.20;59.40
12477;DHT22;6303;51.504;6.300;2023-09-18T12:16:10;30.20;59.30
12477;DHT22;6303;51.504;6.300;2023-09-18T12:18:44;30.30;59.10
12477;DHT22;6303;51.504;6.300;2023-09-18T12:21:13;30.30;59.10
12477;DHT22;6303;51.504;6.300;2023-09-18T12:23:42;30.20;59.20
12477;DHT22;6303;51.504;6.300;2023-09-18T12:26:12;30.20;59.30
12477;DHT22;6303;51.504;6.300;2023-09-18T12:28:40;30.20;59.30
12477;DHT22;6303;51.504;6.300;2023-09-18T12:31:10;30.10;59.50
12477;DHT22;6303;51.504;6.300;2023-09-18T12:33:38;30.10;59.60
12477;DHT22;6303;51.504;6.300;2023-09-18T12:36:07;30.10;59.60
12477;DHT22;6303;51.504;6.300;2023-09-18T12:38:35;30.10;59.60
12477;DHT22;6303;51.504;6.300;2023-09-18T12:41:03;30.10;59.60
12477;DHT22;6303;51.504;6.300;2023-09-18T12:43:38;30.00;59.70
12477;DHT22;6303;51.504;6.300;2023-09-18T12:46:09;30.00;59.70
12477;DHT22;6303;51.504;6.300;2023-09-18T12:48:40;30.00;59.70
12477;DHT22;6303;51.504;6.300;2023-09-18T12:51:11;29.90;59.60
12477;DHT22;6303;51.504;6.300;2023-09-18T12:53:38;29.90;59.60
12477;DHT22;6303;51.504;6.300;2023-09-18T12:56:06;29.90;59.70
12477;DHT22;6303;51.504;6.300;2023-09-18T12:58:33;29.90;59.80
12477;DHT22;6303;51.504;6.300;2023-09-18T13:01:05;29.80;59.10
12477;DHT22;6303;51.504;6.300;2023-09-18T13:03:42;29.80;58.70
12477;DHT22;6303;51.504;6.300;2023-09-18T13:06:11;29.80;59.00
12477;DHT22;6303;51.504;6.300;2023-09-18T13:08:40;29.70;59.20
12477;DHT22;6303;51.504;6.300;2023-09-18T13:11:08;29.70;59.30
12477;DHT22;6303;51.504;6.300;2023-09-18T13:13:37;29.70;59.30
12477;DHT22;6303;51.504;6.300;2023-09-18T13:16:07;29.70;59.40
12477;DHT22;6303;51.504;6.300;2023-09-18T13:18:35;29.70;59.50
12477;DHT22;6303;51.504;6.300;2023-09-18T13:21:09;29.70;59.50
12477;DHT22;6303;51.504;6.300;2023-09-18T13:23:37;29.70;59.50
12477;DHT22;6303;51.504;6.300;2023-09-18T13:26:06;29.60;59.40
12477;DHT22;6303;51.504;6.300;2023-09-18T13:28:34;29.70;59.60
12477;DHT22;6303;51.504;6.300;2023-09-18T13:31:02;29.60;59.50
12477;DHT22;6303;51.504;6.300;2023-09-18T13:33:38;29.60;59.40
12477;DHT22;6303;51.504;6.300;2023-09-18T13:36:05;29.60;59.40
12477;DHT22;6303;51.504;6.300;2023-09-18T13:38:33;29.60;59.40
12477;DHT22;6303;51.504;6.300;2023-09-18T13:41:00;29.60;59.40
12477;DHT22;6303;51.504;6.300;2023-09-18T13:43:27;29.60;59.30
12477;DHT22;6303;51.504;6.300;2023-09-18T13:45:58;29.60;59.30
12477;DHT22;6303;51.504;6.300;2023-09-18T13:48:25;29.60;59.20
12477;DHT22;6303;51.504;6.300;2023-09-18T13:50:54;29.60;59.10
12477;DHT22;6303;51.504;6.300;2023-09-18T13:53:21;29.60;59.10
12477;DHT22;6303;51.504;6.300;2023-09-18T13:55:48;29.50;59.00
12477;DHT22;6303;51.504;6.300;2023-09-18T13:58:15;29.50;58.90
12477;DHT22;6303;51.504;6.300;2023-09-18T14:00:42;29.50;58.80
12477;DHT22;6303;51.504;6.300;2023-09-18T14:03:09;29.50;58.80
12477;DHT22;6303;51.504;6.300;2023-09-18T14:05:40;29.50;58.80
12477;DHT22;6303;51.504;6.300;2023-09-18T14:08:09;29.50;58.90
12477;DHT22;6303;51.504;6.300;2023-09-18T14:10:36;29.50;59.00
12477;DHT22;6303;51.504;6.300;2023-09-18T14:13:05;29.50;59.00
12477;DHT22;6303;51.504;6.300;2023-09-18T14:15:33;29.50;58.90
12477;DHT22;6303;51.504;6.300;2023-09-18T14:18:00;29.40;59.10
12477;DHT22;6303;51.504;6.300;2023-09-18T14:20:27;29.50;59.20
12477;DHT22;6303;51.504;6.300;2023-09-18T14:22:54;29.40;59.10
12477;DHT22;6303;51.504;6.300;2023-09-18T14:25:23;29.40;59.10
12477;DHT22;6303;51.504;6.300;2023-09-18T14:27:50;29.50;59.20
12477;DHT22;6303;51.504;6.300;2023-09-18T14:30:18;29.50;59.10
12477;DHT22;6303;51.504;6.300;2023-09-18T14:32:45;29.40;59.00
12477;DHT22;6303;51.504;6.300;2023-09-18T14:35:12;29.40;58.90
12477;DHT22;6303;51.504;6.300;2023-09-18T14:37:39;29.50;58.90
12477;DHT22;6303;51.504;6.300;2023-09-18T14:40:07;29.40;58.80
12477;DHT22;6303;51.504;6.300;2023-09-18T14:42:38;29.40;58.70
12477;DHT22;6303;51.504;6.300;2023-09-18T14:45:06;29.40;58.70
12477;DHT22;6303;51.504;6.300;2023-09-18T14:47:34;29.40;58.70
12477;DHT22;6303;51.504;6.300;2023-09-18T14:50:01;29.40;57.60
12477;DHT22;6303;51.504;6.300;2023-09-18T14:52:30;29.40;56.70
12477;DHT22;6303;51.504;6.300;2023-09-18T14:54:57;29.30;56.80
12477;DHT22;6303;51.504;6.300;2023-09-18T14:57:25;29.40;57.00
12477;DHT22;6303;51.504;6.300;2023-09-18T14:59:54;29.40;57.10
12477;DHT22;6303;51.504;6.300;2023-09-18T15:02:21;29.40;57.30
12477;DHT22;6303;51.504;6.300;2023-09-18T15:04:53;29.40;57.40
12477;DHT22;6303;51.504;6.300;2023-09-18T15:07:20;29.40;57.50
12477;DHT22;6303;51.504;6.300;2023-09-18T15:09:47;29.40;57.60
12477;DHT22;6303;51.504;6.300;2023-09-18T15:12:14;29.40;57.70
12477;DHT22;6303;51.504;6.300;2023-09-18T15:14:41;29.40;57.80
12477;DHT22;6303;51.504;6.300;2023-09-18T15:17:10;29.40;57.90
12477;DHT22;6303;51.504;6.300;2023-09-18T15:19:37;29.40;57.90
12477;DHT22;6303;51.504;6.300;2023-09-18T15:22:04;29.40;58.00
12477;DHT22;6303;51.504;6.300;2023-09-18T15:24:33;29.40;58.00
12477;DHT22;6303;51.504;6.300;2023-09-18T15:27:00;30.40;58.70
12477;DHT22;6303;51.504;6.300;2023-09-18T15:29:27;29.40;58.10
12477;DHT22;6303;51.504;6.300;2023-09-18T15:31:56;29.40;58.10
12477;DHT22;6303;51.504;6.300;2023-09-18T15:34:25;29.40;58.20
12477;DHT22;6303;51.504;6.300;2023-09-18T15:36:52;29.40;58.20
12477;DHT22;6303;51.504;6.300;2023-09-18T15:39:19;29.40;58.20
12477;DHT22;6303;51.504;6.300;2023-09-18T15:41:46;29.40;57.90
12477;DHT22;6303;51.504;6.300;2023-09-18T15:44:13;29.40;58.00
12477;DHT22;6303;51.504;6.300;2023-09-18T15:46:41;29.40;58.00
12477;DHT22;6303;51.504;6.300;2023-09-18T15:49:08;29.40;58.00
12477;DHT22;6303;51.504;6.300;2023-09-18T15:51:36;29.40;58.00
12477;DHT22;6303;51.504;6.300;2023-09-18T15:54:03;29.40;58.10